Flight Track Log - Related Links

Times and Time Zones

All times are in EDT time to prevent confusion due to time zone crossing. See the FLG4099 flight status page for this flight to view local times or setup timezone preferences in your user account.

Time Position Orientation Groundspeed Altitude Reporting Facility
EDT Latitude Longitude Course Direction KTS MPH feet Rate Location/Type
Sat 06:14:20 AM 44.4256 -73.2017 256° West 187 215 4,200  Level Boston Center
Sat 06:15:00 AM 44.3941 -73.5721 253° West  Level FlightAware Approximate
Sat 06:15:20 AM 44.4125 -73.2886 258° West 201 231 6,600  Level Boston Center
Sat 06:16:00 AM 44.3651 -73.7112 259° West  Level FlightAware Approximate
Sat 06:16:20 AM 44.3947 -73.4017 258° West 266 306 9,400  Level Boston Center
Sat 06:17:00 AM 44.3448 -73.8533 259° West  Level FlightAware Approximate
Sat 06:17:20 AM 44.3836 -73.4800 259° West 286 329 11,300  Level Boston Center
Sat 06:18:00 AM 44.3221 -73.9946 256° West  Level FlightAware Approximate
Sat 06:18:20 AM 44.3572 -73.6422 257° West 323 372 14,400  Level Boston Center
Sat 06:19:00 AM 44.2963 -74.1348 256° West  Level FlightAware Approximate
Sat 06:19:20 AM 44.3369 -73.7694 257° West 334 384 16,400  Level Boston Center
Sat 06:20:20 AM 44.3144 -73.9111 258° West 355 409 17,700 955 Climbing Boston Center
Sat 06:21:32 AM 44.2869 -74.0872 258° West 379 436 18,500 773 Climbing Boston Center
Sat 06:22:32 AM 44.2617 -74.2461 258° West 402 463 19,400 950 Climbing Boston Center
Sat 06:23:32 AM 44.2361 -74.4047 257° West 418 481 20,400 1,000 Climbing Boston Center
Sat 06:24:32 AM 44.2106 -74.5631 257° West 430 495 21,400 1,000 Climbing Boston Center
Sat 06:25:32 AM 44.1844 -74.7272 258° West 430 495 22,400 1,000 Climbing Boston Center
Sat 06:26:32 AM 44.1581 -74.8883 257° West 430 495 23,400 1,000 Climbing Boston Center
Sat 06:27:32 AM 44.1297 -75.0492 256° West 430 495 24,400 1,000 Climbing Boston Center
Sat 06:28:32 AM 44.1028 -75.2186 258° West 435 501 25,400 1,000 Climbing Boston Center
Sat 06:29:32 AM 44.0736 -75.3819 256° West 435 501 26,400 1,000 Climbing Boston Center
Sat 06:30:32 AM 44.0464 -75.5425 257° West 435 501 27,400 800 Climbing Boston Center
Sat 06:31:32 AM 44.0169 -75.7083 256° West 435 501 28,000 300 Climbing Boston Center
Sat 06:32:32 AM 43.9892 -75.8772 257° West 442 509 28,000  Level Boston Center
Sat 06:33:32 AM 43.9586 -76.0486 256° West 453 521 28,000  Level Boston Center
Sat 06:34:32 AM 43.9508 -76.2328 267° West 463 533 28,000  Level Boston Center
Sat 06:35:32 AM 43.9472 -76.3969 268° West 470 541 28,000  Level Boston Center
Sat 06:37:47 AM 43.9167 -76.8167 264° West 470 541 28,000  Level Toronto Center
Sat 06:38:47 AM 43.9167 -76.9667 270° West 470 541 28,000  Level Toronto Center
Sat 06:39:47 AM 43.9000 -77.1500 263° West 470 541 28,000  Level Toronto Center
Sat 06:40:47 AM 43.9000 -77.3333 270° West 470 541 28,000  Level Toronto Center
Sat 06:41:47 AM 43.9000 -77.5333 270° West 470 541 28,000  Level Toronto Center
Sat 06:42:47 AM 43.9000 -77.6833 270° West 470 541 28,000  Level Toronto Center
Sat 06:43:47 AM 43.8833 -77.8667 263° West 470 541 28,000  Level Toronto Center
Sat 06:44:47 AM 43.8667 -78.0667 263° West 470 541 28,000  Level Toronto Center
Sat 06:45:47 AM 43.8667 -78.2500 270° West 470 541 28,000  Level Toronto Center
Sat 06:46:47 AM 43.8500 -78.4333 263° West 470 541 28,000  Level Toronto Center
Sat 06:47:47 AM 43.8667 -78.6000 278° West 470 541 28,000  Level Toronto Center
Sat 06:48:47 AM 43.8500 -78.8000 263° West 470 541 28,000  Level Toronto Center
Sat 06:49:47 AM 43.8333 -78.9667 262° West 470 541 28,000  Level Toronto Center
Sat 06:50:47 AM 43.8333 -79.1500 270° West 470 541 28,000  Level Toronto Center
Sat 06:51:47 AM 43.8167 -79.3333 263° West 470 541 28,000  Level Toronto Center
Sat 06:52:47 AM 43.8000 -79.5167 263° West 470 541 28,000  Level Toronto Center
Sat 06:53:47 AM 43.7333 -79.6500 235° Southwest 470 541 28,000  Level Toronto Center
Sat 06:54:47 AM 43.6333 -79.7667 220° Southwest 480 552 28,000  Level Toronto Center
Sat 06:55:47 AM 43.5333 -79.8833 220° Southwest 470 541 28,000  Level Toronto Center
Sat 06:56:47 AM 43.4333 -80.0000 220° Southwest 470 541 28,000 -100 Level Toronto Center
Sat 06:57:47 AM 43.3333 -80.1167 220° Southwest 470 541 27,800 -500 Descending Toronto Center
Sat 06:58:47 AM 43.2333 -80.2500 224° Southwest 470 541 27,000 -750 Descending Toronto Center
Sat 06:59:47 AM 43.1500 -80.3667 226° Southwest 470 541 26,300 -800 Descending Toronto Center
Sat 07:00:47 AM 43.0333 -80.4833 216° Southwest 470 541 25,400 -1,250 Descending Toronto Center
Sat 07:01:47 AM 42.9500 -80.5667 216° Southwest 430 495 23,800 -1,200 Descending Toronto Center
Sat 07:02:47 AM 42.8667 -80.6833 226° Southwest 430 495 23,000 -495 Descending Toronto Center
Sat 07:03:24 AM 42.8122 -80.7672 229° Southwest 431 496 23,000 -680 Level Cleveland Center
Sat 07:04:24 AM 42.7244 -80.8686 220° Southwest 426 490 21,900 -1,100 Descending Cleveland Center
Sat 07:05:24 AM 42.6908 -81.0069 252° West 381 438 20,800 -1,100 Descending Cleveland Center
Sat 07:06:24 AM 42.6756 -81.1536 262° West 381 438 19,700 -1,050 Descending Cleveland Center
Sat 07:07:24 AM 42.6600 -81.3003 262° West 400 460 18,700 -850 Descending Cleveland Center
Sat 07:08:24 AM 42.6403 -81.4469 260° West 408 470 18,000 -850 Descending Cleveland Center
Sat 07:09:24 AM 42.6244 -81.5933 262° West 408 470 17,000 -1,000 Descending Cleveland Center
Sat 07:10:24 AM 42.6064 -81.7425 261° West 403 464 16,000 -1,050 Descending Cleveland Center
Sat 07:11:24 AM 42.5861 -81.9000 260° West 415 478 14,900 -1,050 Descending Cleveland Center
Sat 07:12:24 AM 42.5675 -82.0575 261° West 421 484 13,900 -1,050 Descending Cleveland Center
Sat 07:13:24 AM 42.5489 -82.2064 260° West 426 490 12,800 -950 Descending Cleveland Center
Sat 07:14:24 AM 42.5300 -82.3553 260° West 421 484 12,000 -400 Descending Cleveland Center
Sat 07:15:24 AM 42.5108 -82.5042 260° West 411 473 12,000 -200 Level Cleveland Center
Sat 07:16:24 AM 42.4753 -82.6325 249° West 392 451 11,600 -600 Descending Cleveland Center
Sat 07:17:24 AM 42.4400 -82.7356 245° Southwest 349 402 10,800 -1,000 Descending Cleveland Center
Sat 07:18:24 AM 42.4069 -82.8356 246° West 312 359 9,600 -1,350 Descending Cleveland Center
Sat 07:19:24 AM 42.4108 -82.9483 273° West 296 341 8,100 -1,500 Descending Cleveland Center
Sat 07:20:24 AM 42.4042 -83.0661 266° West 302 348 6,600 -1,300 Descending Cleveland Center
Sat 07:21:24 AM 42.3936 -83.1669 262° West 296 341 5,500 -1,100 Descending Cleveland Center
Sat 07:22:24 AM 42.3589 -83.2303 233° Southwest 237 273 4,400 -1,300 Descending Cleveland Center
Sat 07:23:24 AM 42.3186 -83.2594 208° Southwest 195 224 2,900 -1,500 Descending Cleveland Center

Login

Don't have an account? Register now (free) for customized features, flight alerts, and more!